sensor_id;sensor_type;location;lat;lon;timestamp;pressure;altitude;pressure_sealevel;temperature;humidity
5996;BME280;3026;53.612;7.278;2023-07-29T00:02:04;100554.94;;;18.77;100.00
5996;BME280;3026;53.612;7.278;2023-07-29T00:04:31;100556.22;;;18.75;100.00
5996;BME280;3026;53.612;7.278;2023-07-29T00:06:59;100553.94;;;18.72;100.00
5996;BME280;3026;53.612;7.278;2023-07-29T00:09:29;100544.44;;;18.68;100.00
5996;BME280;3026;53.612;7.278;2023-07-29T00:11:59;100550.44;;;18.64;100.00
5996;BME280;3026;53.612;7.278;2023-07-29T00:14:28;100555.97;;;18.64;100.00
5996;BME280;3026;53.612;7.278;2023-07-29T00:16:55;100544.25;;;18.62;100.00
5996;BME280;3026;53.612;7.278;2023-07-29T00:19:23;100543.03;;;18.58;100.00
5996;BME280;3026;53.612;7.278;2023-07-29T00:21:51;100537.16;;;18.55;100.00
5996;BME280;3026;53.612;7.278;2023-07-29T00:24:18;100536.53;;;18.53;100.00
5996;BME280;3026;53.612;7.278;2023-07-29T00:26:48;100527.63;;;18.51;100.00
5996;BME280;3026;53.612;7.278;2023-07-29T00:29:15;100526.78;;;18.50;100.00
5996;BME280;3026;53.612;7.278;2023-07-29T00:31:43;100537.22;;;18.48;100.00
5996;BME280;3026;53.612;7.278;2023-07-29T00:34:12;100530.72;;;18.43;100.00
5996;BME280;3026;53.612;7.278;2023-07-29T00:36:42;100532.66;;;18.42;100.00
5996;BME280;3026;53.612;7.278;2023-07-29T00:39:09;100517.16;;;18.41;100.00
5996;BME280;3026;53.612;7.278;2023-07-29T00:41:38;100519.06;;;18.41;100.00
5996;BME280;3026;53.612;7.278;2023-07-29T00:44:05;100514.25;;;18.36;100.00
5996;BME280;3026;53.612;7.278;2023-07-29T00:46:33;100512.09;;;18.38;100.00
5996;BME280;3026;53.612;7.278;2023-07-29T00:49:02;100507.03;;;18.35;100.00
5996;BME280;3026;53.612;7.278;2023-07-29T00:51:29;100505.59;;;18.32;100.00
5996;BME280;3026;53.612;7.278;2023-07-29T00:53:58;100490.53;;;18.28;100.00
5996;BME280;3026;53.612;7.278;2023-07-29T00:56:25;100493.09;;;18.30;100.00
5996;BME280;3026;53.612;7.278;2023-07-29T00:58:52;100484.88;;;18.23;100.00
5996;BME280;3026;53.612;7.278;2023-07-29T01:01:24;100484.66;;;18.25;100.00
5996;BME280;3026;53.612;7.278;2023-07-29T01:03:51;100480.81;;;18.26;100.00
5996;BME280;3026;53.612;7.278;2023-07-29T01:06:27;100471.94;;;18.24;100.00
5996;BME280;3026;53.612;7.278;2023-07-29T01:09:01;100475.31;;;18.26;100.00
5996;BME280;3026;53.612;7.278;2023-07-29T01:11:38;100476.38;;;18.25;100.00
5996;BME280;3026;53.612;7.278;2023-07-29T01:14:18;100469.78;;;18.26;100.00
5996;BME280;3026;53.612;7.278;2023-07-29T01:16:55;100473.63;;;18.25;100.00
5996;BME280;3026;53.612;7.278;2023-07-29T01:19:42;100477.44;;;18.24;100.00
5996;BME280;3026;53.612;7.278;2023-07-29T01:22:13;100477.44;;;18.24;100.00
5996;BME280;3026;53.612;7.278;2023-07-29T01:24:45;100467.03;;;18.26;100.00
5996;BME280;3026;53.612;7.278;2023-07-29T01:27:11;100467.03;;;18.26;100.00
5996;BME280;3026;53.612;7.278;2023-07-29T01:29:38;100458.75;;;18.26;100.00
5996;BME280;3026;53.612;7.278;2023-07-29T01:32:10;100463.19;;;18.27;100.00
5996;BME280;3026;53.612;7.278;2023-07-29T01:34:57;100466.41;;;18.24;100.00
5996;BME280;3026;53.612;7.278;2023-07-29T01:37:30;100465.09;;;18.26;100.00
5996;BME280;3026;53.612;7.278;2023-07-29T01:40:00;100460.91;;;18.24;100.00
5996;BME280;3026;53.612;7.278;2023-07-29T01:42:27;100455.38;;;18.24;100.00
5996;BME280;3026;53.612;7.278;2023-07-29T01:44:54;100460.41;;;18.27;100.00
5996;BME280;3026;53.612;7.278;2023-07-29T01:47:21;100450.69;;;18.24;100.00
5996;BME280;3026;53.612;7.278;2023-07-29T01:49:48;100446.97;;;18.19;100.00
5996;BME280;3026;53.612;7.278;2023-07-29T01:52:15;100449.25;;;18.22;100.00
5996;BME280;3026;53.612;7.278;2023-07-29T01:54:42;100446.50;;;18.22;100.00
5996;BME280;3026;53.612;7.278;2023-07-29T01:57:14;100446.50;;;18.22;100.00
5996;BME280;3026;53.612;7.278;2023-07-29T01:59:40;100441.44;;;18.19;100.00
5996;BME280;3026;53.612;7.278;2023-07-29T02:02:07;100440.59;;;18.18;100.00
5996;BME280;3026;53.612;7.278;2023-07-29T02:04:34;100436.78;;;18.19;100.00
5996;BME280;3026;53.612;7.278;2023-07-29T02:07:01;100438.22;;;18.22;100.00
5996;BME280;3026;53.612;7.278;2023-07-29T02:09:28;100430.41;;;18.19;100.00
5996;BME280;3026;53.612;7.278;2023-07-29T02:11:58;100433.78;;;18.21;100.00
5996;BME280;3026;53.612;7.278;2023-07-29T02:14:26;100429.09;;;18.21;100.00
5996;BME280;3026;53.612;7.278;2023-07-29T02:16:53;100430.41;;;18.19;100.00
5996;BME280;3026;53.612;7.278;2023-07-29T02:19:22;100433.78;;;18.21;100.00
5996;BME280;3026;53.612;7.278;2023-07-29T02:21:49;100429.34;;;18.20;100.00
5996;BME280;3026;53.612;7.278;2023-07-29T02:24:19;100437.59;;;18.20;100.00
5996;BME280;3026;53.612;7.278;2023-07-29T02:26:48;100429.78;;;18.17;100.00
5996;BME280;3026;53.612;7.278;2023-07-29T02:29:17;100439.28;;;18.21;100.00
5996;BME280;3026;53.612;7.278;2023-07-29T02:31:45;100429.94;;;18.22;100.00
5996;BME280;3026;53.612;7.278;2023-07-29T02:34:13;100437.13;;;18.23;100.00
5996;BME280;3026;53.612;7.278;2023-07-29T02:36:40;100434.63;;;18.21;100.00
5996;BME280;3026;53.612;7.278;2023-07-29T02:39:11;100434.13;;;18.24;100.00
5996;BME280;3026;53.612;7.278;2023-07-29T02:41:37;100434.97;;;18.25;100.00
5996;BME280;3026;53.612;7.278;2023-07-29T02:44:05;100433.66;;;18.27;100.00
5996;BME280;3026;53.612;7.278;2023-07-29T02:46:32;100430.31;;;18.25;100.00
5996;BME280;3026;53.612;7.278;2023-07-29T02:49:01;100421.78;;;18.27;100.00
5996;BME280;3026;53.612;7.278;2023-07-29T02:51:29;100431.31;;;18.31;100.00
5996;BME280;3026;53.612;7.278;2023-07-29T02:53:56;100432.38;;;18.30;100.00
5996;BME280;3026;53.612;7.278;2023-07-29T02:56:23;100424.72;;;18.32;100.00
5996;BME280;3026;53.612;7.278;2023-07-29T02:58:50;100428.91;;;18.34;100.00
5996;BME280;3026;53.612;7.278;2023-07-29T03:01:17;100424.22;;;18.35;100.00
5996;BME280;3026;53.612;7.278;2023-07-29T03:03:45;100423.75;;;18.38;100.00
5996;BME280;3026;53.612;7.278;2023-07-29T03:06:14;100422.06;;;18.37;100.00
5996;BME280;3026;53.612;7.278;2023-07-29T03:08:41;100421.22;;;18.36;100.00
5996;BME280;3026;53.612;7.278;2023-07-29T03:11:09;100419.06;;;18.38;100.00
5996;BME280;3026;53.612;7.278;2023-07-29T03:13:49;100419.06;;;18.38;100.00
5996;BME280;3026;53.612;7.278;2023-07-29T03:16:17;100422.69;;;18.39;100.00
5996;BME280;3026;53.612;7.278;2023-07-29T03:18:44;100417.78;;;18.41;100.00
5996;BME280;3026;53.612;7.278;2023-07-29T03:21:13;100419.47;;;18.42;100.00
5996;BME280;3026;53.612;7.278;2023-07-29T03:23:43;100423.75;;;18.38;100.00
5996;BME280;3026;53.612;7.278;2023-07-29T03:26:13;100417.16;;;18.39;100.00
5996;BME280;3026;53.612;7.278;2023-07-29T03:28:43;100425.00;;;18.42;100.00
5996;BME280;3026;53.612;7.278;2023-07-29T03:31:10;100423.31;;;18.41;100.00
5996;BME280;3026;53.612;7.278;2023-07-29T03:33:37;100419.47;;;18.42;100.00
5996;BME280;3026;53.612;7.278;2023-07-29T03:36:04;100425.00;;;18.42;100.00
5996;BME280;3026;53.612;7.278;2023-07-29T03:38:33;100429.44;;;18.43;100.00
5996;BME280;3026;53.612;7.278;2023-07-29T03:41:03;100428.59;;;18.43;100.00
5996;BME280;3026;53.612;7.278;2023-07-29T03:43:33;100427.13;;;18.40;100.00
5996;BME280;3026;53.612;7.278;2023-07-29T03:46:03;100427.97;;;18.41;100.00
5996;BME280;3026;53.612;7.278;2023-07-29T03:48:30;100432.88;;;18.38;100.00
5996;BME280;3026;53.612;7.278;2023-07-29T03:51:00;100429.75;;;18.35;100.00
5996;BME280;3026;53.612;7.278;2023-07-29T03:53:27;100424.72;;;18.32;100.00
5996;BME280;3026;53.612;7.278;2023-07-29T03:55:56;100422.56;;;18.34;100.00
5996;BME280;3026;53.612;7.278;2023-07-29T03:58:22;100424.22;;;18.35;100.00
5996;BME280;3026;53.612;7.278;2023-07-29T04:00:49;100415.34;;;18.33;100.00
5996;BME280;3026;53.612;7.278;2023-07-29T04:03:17;100417.03;;;18.34;100.00
5996;BME280;3026;53.612;7.278;2023-07-29T04:05:50;100402.63;;;18.32;100.00
5996;BME280;3026;53.612;7.278;2023-07-29T04:08:20;100408.16;;;18.32;100.00
5996;BME280;3026;53.612;7.278;2023-07-29T04:10:47;100401.38;;;18.28;100.00
5996;BME280;3026;53.612;7.278;2023-07-29T04:13:16;100397.56;;;18.29;100.00
5996;BME280;3026;53.612;7.278;2023-07-29T04:15:45;100401.38;;;18.28;100.00
5996;BME280;3026;53.612;7.278;2023-07-29T04:18:12;100398.03;;;18.26;100.00
5996;BME280;3026;53.612;7.278;2023-07-29T04:20:39;100396.09;;;18.26;100.00
5996;BME280;3026;53.612;7.278;2023-07-29T04:23:08;100395.28;;;18.26;100.00
5996;BME280;3026;53.612;7.278;2023-07-29T04:25:35;100396.34;;;18.25;100.00
5996;BME280;3026;53.612;7.278;2023-07-29T04:28:02;100389.16;;;18.24;100.00
5996;BME280;3026;53.612;7.278;2023-07-29T04:30:34;100389.16;;;18.24;100.00
5996;BME280;3026;53.612;7.278;2023-07-29T04:33:01;100384.09;;;18.21;100.00
5996;BME280;3026;53.612;7.278;2023-07-29T04:35:28;100390.84;;;18.25;100.00
5996;BME280;3026;53.612;7.278;2023-07-29T04:37:55;100390.00;;;18.24;100.00
5996;BME280;3026;53.612;7.278;2023-07-29T04:40:22;100389.75;;;18.26;100.00
5996;BME280;3026;53.612;7.278;2023-07-29T04:42:49;100380.88;;;18.24;100.00
5996;BME280;3026;53.612;7.278;2023-07-29T04:45:16;100384.22;;;18.26;100.00
5996;BME280;3026;53.612;7.278;2023-07-29T04:47:45;100381.47;;;18.26;100.00
5996;BME280;3026;53.612;7.278;2023-07-29T04:50:13;100384.47;;;18.24;100.00
5996;BME280;3026;53.612;7.278;2023-07-29T04:52:42;100374.28;;;18.25;100.00
5996;BME280;3026;53.612;7.278;2023-07-29T04:55:09;100378.47;;;18.27;100.00
5996;BME280;3026;53.612;7.278;2023-07-29T04:57:36;100382.06;;;18.28;100.00
5996;BME280;3026;53.612;7.278;2023-07-29T05:00:04;100381.00;;;18.29;100.00
5996;BME280;3026;53.612;7.278;2023-07-29T05:02:31;100382.72;;;18.30;100.00
5996;BME280;3026;53.612;7.278;2023-07-29T05:05:03;100384.84;;;18.28;100.00
5996;BME280;3026;53.612;7.278;2023-07-29T05:07:32;100374.88;;;18.27;100.00
5996;BME280;3026;53.612;7.278;2023-07-29T05:09:59;100373.19;;;18.26;100.00
5996;BME280;3026;53.612;7.278;2023-07-29T05:12:26;100384.38;;;18.31;100.00
5996;BME280;3026;53.612;7.278;2023-07-29T05:14:54;100378.88;;;18.31;100.00
5996;BME280;3026;53.612;7.278;2023-07-29T05:17:21;100385.59;;;18.35;100.00
5996;BME280;3026;53.612;7.278;2023-07-29T05:19:48;100391.13;;;18.35;100.00
5996;BME280;3026;53.612;7.278;2023-07-29T05:22:17;100388.47;;;18.40;100.00
5996;BME280;3026;53.612;7.278;2023-07-29T05:24:44;100380.44;;;18.38;100.00
5996;BME280;3026;53.612;7.278;2023-07-29T05:27:11;100389.72;;;18.44;100.00
5996;BME280;3026;53.612;7.278;2023-07-29T05:29:37;100385.38;;;18.48;100.00
5996;BME280;3026;53.612;7.278;2023-07-29T05:32:05;100392.16;;;18.52;100.00
5996;BME280;3026;53.612;7.278;2023-07-29T05:34:34;100395.50;;;18.54;100.00
5996;BME280;3026;53.612;7.278;2023-07-29T05:37:01;100391.19;;;18.58;100.00
5996;BME280;3026;53.612;7.278;2023-07-29T05:39:30;100387.34;;;18.59;100.00
5996;BME280;3026;53.612;7.278;2023-07-29T05:41:57;100379.66;;;18.61;100.00
5996;BME280;3026;53.612;7.278;2023-07-29T05:44:24;100383.00;;;18.63;100.00
5996;BME280;3026;53.612;7.278;2023-07-29T05:46:51;100398.69;;;18.70;100.00
5996;BME280;3026;53.612;7.278;2023-07-29T05:49:18;100382.59;;;18.67;100.00
5996;BME280;3026;53.612;7.278;2023-07-29T05:51:45;100383.19;;;18.69;100.00
5996;BME280;3026;53.612;7.278;2023-07-29T05:54:12;100387.16;;;18.73;100.00
5996;BME280;3026;53.612;7.278;2023-07-29T05:56:40;100398.81;;;18.75;100.00
5996;BME280;3026;53.612;7.278;2023-07-29T05:59:07;100405.81;;;18.77;100.00
5996;BME280;3026;53.612;7.278;2023-07-29T06:01:34;100400.28;;;18.77;100.00
5996;BME280;3026;53.612;7.278;2023-07-29T06:04:04;100403.28;;;18.76;100.00
5996;BME280;3026;53.612;7.278;2023-07-29T06:06:31;100403.63;;;18.79;100.00
5996;BME280;3026;53.612;7.278;2023-07-29T06:08:58;100403.16;;;18.82;100.00
5996;BME280;3026;53.612;7.278;2023-07-29T06:11:25;100402.31;;;18.82;100.00
5996;BME280;3026;53.612;7.278;2023-07-29T06:13:53;100405.69;;;18.84;100.00
5996;BME280;3026;53.612;7.278;2023-07-29T06:16:20;100399.06;;;18.85;100.00
5996;BME280;3026;53.612;7.278;2023-07-29T06:18:47;100401.97;;;18.90;100.00
5996;BME280;3026;53.612;7.278;2023-07-29T06:21:14;100393.19;;;18.93;100.00
5996;BME280;3026;53.612;7.278;2023-07-29T06:23:42;100396.56;;;18.95;100.00
5996;BME280;3026;53.612;7.278;2023-07-29T06:26:09;100391.53;;;18.92;100.00
5996;BME280;3026;53.612;7.278;2023-07-29T06:28:36;100395.63;;;19.01;100.00
5996;BME280;3026;53.612;7.278;2023-07-29T06:31:04;100404.50;;;19.03;100.00
5996;BME280;3026;53.612;7.278;2023-07-29T06:33:31;100409.19;;;19.03;100.00
5996;BME280;3026;53.612;7.278;2023-07-29T06:35:58;100403.44;;;19.04;100.00
5996;BME280;3026;53.612;7.278;2023-07-29T06:38:25;100402.34;;;19.05;100.00
5996;BME280;3026;53.612;7.278;2023-07-29T06:40:52;100407.38;;;19.08;100.00
5996;BME280;3026;53.612;7.278;2023-07-29T06:43:19;100401.41;;;19.11;100.00
5996;BME280;3026;53.612;7.278;2023-07-29T06:45:46;100408.97;;;19.16;100.00
5996;BME280;3026;53.612;7.278;2023-07-29T06:48:15;100417.00;;;19.17;100.00
5996;BME280;3026;53.612;7.278;2023-07-29T06:50:42;100404.28;;;19.16;100.00
5996;BME280;3026;53.612;7.278;2023-07-29T06:53:09;100412.31;;;19.18;100.00
5996;BME280;3026;53.612;7.278;2023-07-29T06:55:36;100417.00;;;19.17;100.00
5996;BME280;3026;53.612;7.278;2023-07-29T06:58:03;100422.53;;;19.17;100.00
5996;BME280;3026;53.612;7.278;2023-07-29T07:00:29;100422.06;;;19.20;100.00
5996;BME280;3026;53.612;7.278;2023-07-29T07:02:56;100423.72;;;19.21;100.00
5996;BME280;3026;53.612;7.278;2023-07-29T07:05:25;100430.47;;;19.26;100.00
5996;BME280;3026;53.612;7.278;2023-07-29T07:07:52;100427.47;;;19.27;100.00
5996;BME280;3026;53.612;7.278;2023-07-29T07:10:19;100431.44;;;19.31;100.00
5996;BME280;3026;53.612;7.278;2023-07-29T07:12:46;100425.66;;;19.33;100.00
5996;BME280;3026;53.612;7.278;2023-07-29T07:15:12;100424.13;;;19.37;100.00
5996;BME280;3026;53.612;7.278;2023-07-29T07:17:39;100411.97;;;19.38;100.00
5996;BME280;3026;53.612;7.278;2023-07-29T07:20:07;100422.06;;;19.44;100.00
5996;BME280;3026;53.612;7.278;2023-07-29T07:22:35;100416.53;;;19.44;100.00
5996;BME280;3026;53.612;7.278;2023-07-29T07:25:02;100420.25;;;19.49;100.00
5996;BME280;3026;53.612;7.278;2023-07-29T07:27:30;100416.41;;;19.50;100.00
5996;BME280;3026;53.612;7.278;2023-07-29T07:29:56;100418.47;;;19.55;100.00
5996;BME280;3026;53.612;7.278;2023-07-29T07:32:23;100422.47;;;19.59;100.00
5996;BME280;3026;53.612;7.278;2023-07-29T07:34:50;100426.66;;;19.62;100.00
5996;BME280;3026;53.612;7.278;2023-07-29T07:37:17;100423.06;;;19.61;100.00
5996;BME280;3026;53.612;7.278;2023-07-29T07:39:45;100428.09;;;19.64;100.00
5996;BME280;3026;53.612;7.278;2023-07-29T07:42:12;100422.56;;;19.64;100.00
5996;BME280;3026;53.612;7.278;2023-07-29T07:44:39;100422.56;;;19.64;100.00
5996;BME280;3026;53.612;7.278;2023-07-29T07:47:06;100414.84;;;19.66;100.00
5996;BME280;3026;53.612;7.278;2023-07-29T07:49:33;100415.22;;;19.70;100.00
5996;BME280;3026;53.612;7.278;2023-07-29T07:52:00;100406.78;;;19.76;100.00
5996;BME280;3026;53.612;7.278;2023-07-29T07:54:30;100402.56;;;19.86;100.00
5996;BME280;3026;53.612;7.278;2023-07-29T07:56:58;100403.88;;;19.95;100.00
5996;BME280;3026;53.612;7.278;2023-07-29T07:59:27;100403.00;;;20.06;100.00
5996;BME280;3026;53.612;7.278;2023-07-29T08:01:54;100409.56;;;20.17;100.00
5996;BME280;3026;53.612;7.278;2023-07-29T08:04:21;100413.19;;;20.17;100.00
5996;BME280;3026;53.612;7.278;2023-07-29T08:06:48;100416.63;;;20.24;100.00
5996;BME280;3026;53.612;7.278;2023-07-29T08:09:14;100412.75;;;20.25;100.00
5996;BME280;3026;53.612;7.278;2023-07-29T08:11:41;100403.88;;;20.23;100.00
5996;BME280;3026;53.612;7.278;2023-07-29T08:14:10;100410.13;;;20.30;100.00
5996;BME280;3026;53.612;7.278;2023-07-29T08:16:37;100411.03;;;20.36;100.00
5996;BME280;3026;53.612;7.278;2023-07-29T08:19:04;100412.97;;;20.35;100.00
5996;BME280;3026;53.612;7.278;2023-07-29T08:21:31;100413.69;;;20.43;100.00
5996;BME280;3026;53.612;7.278;2023-07-29T08:23:57;100418.22;;;20.49;100.00
5996;BME280;3026;53.612;7.278;2023-07-29T08:26:29;100421.13;;;20.54;100.00
5996;BME280;3026;53.612;7.278;2023-07-29T08:28:56;100416.75;;;20.58;100.00
5996;BME280;3026;53.612;7.278;2023-07-29T08:31:25;100424.66;;;20.66;100.00
5996;BME280;3026;53.612;7.278;2023-07-29T08:33:52;100424.66;;;20.66;100.00
5996;BME280;3026;53.612;7.278;2023-07-29T08:36:19;100424.75;;;20.71;100.00
5996;BME280;3026;53.612;7.278;2023-07-29T08:38:48;100423.91;;;20.71;100.00
5996;BME280;3026;53.612;7.278;2023-07-29T08:41:24;100432.84;;;20.73;100.00
5996;BME280;3026;53.612;7.278;2023-07-29T08:44:02;100431.03;;;20.66;100.00
5996;BME280;3026;53.612;7.278;2023-07-29T08:46:34;100428.53;;;20.65;100.00
5996;BME280;3026;53.612;7.278;2023-07-29T08:49:02;100422.88;;;20.60;100.00
5996;BME280;3026;53.612;7.278;2023-07-29T08:51:29;100437.44;;;20.67;100.00
5996;BME280;3026;53.612;7.278;2023-07-29T08:53:58;100431.03;;;20.66;100.00
5996;BME280;3026;53.612;7.278;2023-07-29T08:56:25;100435.44;;;20.79;100.00
5996;BME280;3026;53.612;7.278;2023-07-29T08:58:53;100433.75;;;20.78;100.00
5996;BME280;3026;53.612;7.278;2023-07-29T09:01:21;100433.75;;;20.78;100.00
5996;BME280;3026;53.612;7.278;2023-07-29T09:03:49;100433.75;;;20.78;100.00
5996;BME280;3026;53.612;7.278;2023-07-29T09:06:21;100435.03;;;20.87;100.00
5996;BME280;3026;53.612;7.278;2023-07-29T09:08:49;100425.03;;;20.86;100.00
5996;BME280;3026;53.612;7.278;2023-07-29T09:11:16;100432.91;;;20.94;100.00
5996;BME280;3026;53.612;7.278;2023-07-29T09:13:43;100429.47;;;21.04;100.00
5996;BME280;3026;53.612;7.278;2023-07-29T09:16:13;100441.69;;;21.20;100.00
5996;BME280;3026;53.612;7.278;2023-07-29T09:18:40;100434.16;;;21.32;100.00
5996;BME280;3026;53.612;7.278;2023-07-29T09:21:11;100440.34;;;21.39;100.00
5996;BME280;3026;53.612;7.278;2023-07-29T09:23:39;100435.63;;;21.40;100.00
5996;BME280;3026;53.612;7.278;2023-07-29T09:26:12;100441.53;;;21.43;100.00
5996;BME280;3026;53.612;7.278;2023-07-29T09:28:39;100431.28;;;21.44;100.00
5996;BME280;3026;53.612;7.278;2023-07-29T09:31:19;100442.53;;;21.54;100.00
5996;BME280;3026;53.612;7.278;2023-07-29T09:33:46;100426.72;;;21.54;100.00
5996;BME280;3026;53.612;7.278;2023-07-29T09:36:14;100420.66;;;21.58;100.00
5996;BME280;3026;53.612;7.278;2023-07-29T09:38:43;100423.00;;;21.66;100.00
5996;BME280;3026;53.612;7.278;2023-07-29T09:41:15;100428.59;;;21.71;100.00
5996;BME280;3026;53.612;7.278;2023-07-29T09:43:42;100425.31;;;21.74;100.00
5996;BME280;3026;53.612;7.278;2023-07-29T09:46:11;100419.28;;;21.77;100.00
5996;BME280;3026;53.612;7.278;2023-07-29T09:48:38;100420.44;;;21.81;100.00
5996;BME280;3026;53.612;7.278;2023-07-29T09:51:11;100424.63;;;21.83;100.00
5996;BME280;3026;53.612;7.278;2023-07-29T09:53:44;100423.19;;;21.81;100.00
5996;BME280;3026;53.612;7.278;2023-07-29T09:56:14;100421.59;;;21.85;100.00
5996;BME280;3026;53.612;7.278;2023-07-29T09:58:43;100421.59;;;21.85;100.00
5996;BME280;3026;53.612;7.278;2023-07-29T10:01:11;100421.00;;;21.83;100.00
5996;BME280;3026;53.612;7.278;2023-07-29T10:03:38;100417.97;;;21.84;100.00
5996;BME280;3026;53.612;7.278;2023-07-29T10:06:08;100422.03;;;21.99;100.00
5996;BME280;3026;53.612;7.278;2023-07-29T10:08:39;100423.72;;;22.22;100.00
5996;BME280;3026;53.612;7.278;2023-07-29T10:11:10;100423.34;;;22.35;100.00
5996;BME280;3026;53.612;7.278;2023-07-29T10:13:38;100426.13;;;22.35;100.00
5996;BME280;3026;53.612;7.278;2023-07-29T10:16:05;100431.16;;;22.38;100.00
5996;BME280;3026;53.612;7.278;2023-07-29T10:18:33;100432.84;;;22.39;100.00
5996;BME280;3026;53.612;7.278;2023-07-29T10:21:01;100423.94;;;22.37;100.00
5996;BME280;3026;53.612;7.278;2023-07-29T10:23:32;100425.09;;;22.41;100.00
5996;BME280;3026;53.612;7.278;2023-07-29T10:26:02;100432.97;;;22.49;100.00
5996;BME280;3026;53.612;7.278;2023-07-29T10:28:32;100429.25;;;22.43;100.00
5996;BME280;3026;53.612;7.278;2023-07-29T10:31:02;100437.56;;;22.38;100.00
5996;BME280;3026;53.612;7.278;2023-07-29T10:33:33;100432.97;;;22.27;100.00
5996;BME280;3026;53.612;7.278;2023-07-29T10:36:01;100422.84;;;22.16;100.00
5996;BME280;3026;53.612;7.278;2023-07-29T10:38:29;100421.44;;;22.13;100.00
5996;BME280;3026;53.612;7.278;2023-07-29T10:40:57;100423.38;;;22.13;100.00
5996;BME280;3026;53.612;7.278;2023-07-29T10:43:33;100422.53;;;22.12;100.00
5996;BME280;3026;53.612;7.278;2023-07-29T10:46:24;100416.47;;;22.16;100.00
5996;BME280;3026;53.612;7.278;2023-07-29T10:48:55;100422.00;;;22.16;100.00
5996;BME280;3026;53.612;7.278;2023-07-29T10:51:29;100418.94;;;22.12;100.00
5996;BME280;3026;53.612;7.278;2023-07-29T10:53:57;100415.09;;;22.18;100.00
5996;BME280;3026;53.612;7.278;2023-07-29T10:56:27;100414.81;;;22.41;100.00
5996;BME280;3026;53.612;7.278;2023-07-29T10:58:57;100418.91;;;22.61;100.00
5996;BME280;3026;53.612;7.278;2023-07-29T11:01:33;100416.94;;;22.83;100.00
5996;BME280;3026;53.612;7.278;2023-07-29T11:04:22;100404.72;;;23.16;100.00
5996;BME280;3026;53.612;7.278;2023-07-29T11:07:20;100414.28;;;23.31;100.00
5996;BME280;3026;53.612;7.278;2023-07-29T11:09:54;100418.81;;;23.42;100.00
5996;BME280;3026;53.612;7.278;2023-07-29T11:12:42;100420.28;;;23.54;100.00
5996;BME280;3026;53.612;7.278;2023-07-29T11:15:25;100418.31;;;23.55;100.00
5996;BME280;3026;53.612;7.278;2023-07-29T11:17:54;100414.16;;;23.57;100.00
5996;BME280;3026;53.612;7.278;2023-07-29T11:20:22;100413.41;;;23.62;100.00
5996;BME280;3026;53.612;7.278;2023-07-29T11:22:49;100412.91;;;23.75;100.00
5996;BME280;3026;53.612;7.278;2023-07-29T11:25:17;100408.47;;;23.79;100.00
5996;BME280;3026;53.612;7.278;2023-07-29T11:27:45;100410.13;;;23.75;100.00
5996;BME280;3026;53.612;7.278;2023-07-29T11:30:13;100420.09;;;23.66;100.00
5996;BME280;3026;53.612;7.278;2023-07-29T11:32:43;100407.84;;;23.62;100.00
5996;BME280;3026;53.612;7.278;2023-07-29T11:35:12;100409.41;;;23.53;100.00
5996;BME280;3026;53.612;7.278;2023-07-29T11:37:41;100418.81;;;23.47;100.00
5996;BME280;3026;53.612;7.278;2023-07-29T11:40:09;100417.63;;;23.38;100.00
5996;BME280;3026;53.612;7.278;2023-07-29T11:42:39;100414.28;;;23.31;100.00
5996;BME280;3026;53.612;7.278;2023-07-29T11:45:07;100421.44;;;23.26;100.00
5996;BME280;3026;53.612;7.278;2023-07-29T11:47:35;100423.91;;;23.18;100.00
5996;BME280;3026;53.612;7.278;2023-07-29T11:50:05;100423.81;;;23.08;100.00
5996;BME280;3026;53.612;7.278;2023-07-29T11:52:33;100436.00;;;23.02;100.00
5996;BME280;3026;53.612;7.278;2023-07-29T11:55:04;100430.09;;;22.93;100.00
5996;BME280;3026;53.612;7.278;2023-07-29T11:57:34;100433.94;;;22.92;100.00
5996;BME280;3026;53.612;7.278;2023-07-29T12:00:02;100440.94;;;22.94;100.00
5996;BME280;3026;53.612;7.278;2023-07-29T12:02:32;100433.47;;;23.00;100.00
5996;BME280;3026;53.612;7.278;2023-07-29T12:05:01;100427.91;;;23.00;100.00
5996;BME280;3026;53.612;7.278;2023-07-29T12:07:31;100434.69;;;23.14;100.00
5996;BME280;3026;53.612;7.278;2023-07-29T12:09:59;100431.16;;;23.19;100.00
5996;BME280;3026;53.612;7.278;2023-07-29T12:12:26;100433.66;;;23.20;100.00
5996;BME280;3026;53.612;7.278;2023-07-29T12:14:54;100427.53;;;23.18;100.00
5996;BME280;3026;53.612;7.278;2023-07-29T12:17:21;100420.22;;;23.12;100.00
5996;BME280;3026;53.612;7.278;2023-07-29T12:19:48;100436.31;;;23.05;100.00
5996;BME280;3026;53.612;7.278;2023-07-29T12:22:18;100442.94;;;22.99;100.00
5996;BME280;3026;53.612;7.278;2023-07-29T12:24:47;100439.19;;;22.83;100.00
5996;BME280;3026;53.612;7.278;2023-07-29T12:27:17;100435.34;;;22.67;100.00
5996;BME280;3026;53.612;7.278;2023-07-29T12:29:44;100441.13;;;22.61;100.00
5996;BME280;3026;53.612;7.278;2023-07-29T12:32:14;100432.97;;;22.49;100.00
5996;BME280;3026;53.612;7.278;2023-07-29T12:34:41;100449.63;;;22.49;100.00
5996;BME280;3026;53.612;7.278;2023-07-29T12:37:07;100457.88;;;22.44;100.00
5996;BME280;3026;53.612;7.278;2023-07-29T12:39:35;100469.97;;;22.33;100.00
5996;BME280;3026;53.612;7.278;2023-07-29T12:42:08;100471.16;;;22.15;100.00
5996;BME280;3026;53.612;7.278;2023-07-29T12:44:36;100469.56;;;22.02;100.00
5996;BME280;3026;53.612;7.278;2023-07-29T12:47:06;100460.66;;;22.00;100.00
5996;BME280;3026;53.612;7.278;2023-07-29T12:49:34;100469.00;;;22.00;100.00
5996;BME280;3026;53.612;7.278;2023-07-29T12:52:01;100473.72;;;22.00;100.00
5996;BME280;3026;53.612;7.278;2023-07-29T12:54:28;100449.41;;;21.90;100.00
5996;BME280;3026;53.612;7.278;2023-07-29T12:56:54;100465.16;;;21.84;100.00
5996;BME280;3026;53.612;7.278;2023-07-29T12:59:23;100476.50;;;21.83;100.00
5996;BME280;3026;53.612;7.278;2023-07-29T13:01:50;100493.09;;;21.78;100.00
5996;BME280;3026;53.612;7.278;2023-07-29T13:04:19;100493.69;;;21.63;100.00
5996;BME280;3026;53.612;7.278;2023-07-29T13:06:48;100491.94;;;21.40;100.00
5996;BME280;3026;53.612;7.278;2023-07-29T13:09:19;100496.63;;;21.23;100.00